Time;durP1;ratioP1;P1;durP2;ratioP2;P2;SDS_P1;SDS_P2;PMS_P1;PMS_P2;Temp;Humidity;BMP_temperature;BMP_pressure;BME280_temperature;BME280_humidity;BME280_pressure;Samples;Min_cycle;Max_cycle;Signal;HPM_P1;HPM_P2
2023/01/14 00:01:45;;;;;;;13.33;12.23;;;;;;;21.18;34.80;95287.22;6170739;28;104704;-78
2023/01/14 00:04:49;;;;;;;12.77;11.67;;;;;;;20.50;34.46;95190.22;6152898;28;104814;-77
2023/01/14 00:07:52;;;;;;;13.50;12.30;;;;;;;21.10;34.96;95280.69;6168401;28;102821;-77
2023/01/14 00:11:05;;;;;;;13.27;12.07;;;;;;;20.97;34.66;95249.50;6170884;28;103267;-77
2023/01/14 00:14:10;;;;;;;13.30;12.20;;;;;;;21.31;34.68;95298.94;6172068;28;106188;-77
2023/01/14 00:17:14;;;;;;;12.93;11.73;;;;;;;21.12;34.87;95264.44;6170429;28;103094;-77
2023/01/14 00:20:18;;;;;;;12.90;11.80;;;;;;;21.31;34.86;95296.28;6168268;28;105857;-77
2023/01/14 00:23:23;;;;;;;12.93;11.83;;;;;;;20.51;34.80;95172.38;6169795;28;102698;-77
2023/01/14 00:26:29;;;;;;;12.77;11.57;;;;;;;20.66;34.72;95198.69;6169723;28;102541;-78
2023/01/14 00:29:34;;;;;;;13.10;11.90;;;;;;;21.13;34.69;95274.78;6169868;28;102752;-78
2023/01/14 00:32:38;;;;;;;12.57;11.47;;;;;;;21.26;34.97;95285.75;6169315;28;103690;-77
2023/01/14 00:35:41;;;;;;;13.20;12.03;;;;;;;20.92;34.84;95231.75;6170063;28;105235;-77
2023/01/14 00:38:45;;;;;;;13.50;12.20;;;;;;;20.12;34.81;95112.41;6171142;28;105355;-78
2023/01/14 00:41:50;;;;;;;12.83;11.73;;;;;;;21.12;34.74;95262.56;6163311;28;106714;-78
2023/01/14 00:44:53;;;;;;;13.90;12.70;;;;;;;21.30;34.94;95287.50;6170679;28;103373;-78
2023/01/14 00:47:57;;;;;;;13.17;12.07;;;;;;;20.98;34.41;95235.09;6169582;28;102936;-77
2023/01/14 00:51:00;;;;;;;13.37;12.07;;;;;;;21.28;34.58;95281.69;6169357;28;103320;-76
2023/01/14 00:54:04;;;;;;;13.43;12.20;;;;;;;21.04;34.83;95246.47;6162773;28;103476;-77
2023/01/14 00:57:11;;;;;;;12.87;11.70;;;;;;;21.11;34.96;95257.53;6170830;28;103353;-77
2023/01/14 01:00:15;;;;;;;12.53;11.43;;;;;;;21.23;34.47;95268.50;6174093;28;106184;-77
2023/01/14 01:03:19;;;;;;;13.17;12.07;;;;;;;20.68;34.51;95183.25;6174601;28;105466;-79
2023/01/14 01:06:27;;;;;;;14.33;13.03;;;;;;;21.27;34.67;95271.34;6167593;28;105347;-77
2023/01/14 01:09:30;;;;;;;13.33;12.07;;;;;;;21.27;34.62;95280.13;6172365;28;103309;-79
2023/01/14 01:12:35;;;;;;;14.40;13.17;;;;;;;21.09;35.06;95252.50;6172508;28;103272;-78
2023/01/14 01:20:01;;;;;;;13.47;12.27;;;;;;;20.75;34.50;95194.28;6167221;28;102641;-78
2023/01/14 01:23:08;;;;;;;14.30;13.03;;;;;;;20.81;34.41;95197.63;6172191;28;105401;-77
2023/01/14 01:26:15;;;;;;;14.70;13.30;;;;;;;21.10;34.60;95248.75;6170891;28;102791;-79
2023/01/14 01:29:21;;;;;;;13.90;12.50;;;;;;;20.86;34.34;95222.28;6169050;28;102876;-77
2023/01/14 01:32:25;;;;;;;12.90;11.80;;;;;;;21.03;34.72;95232.38;6171375;28;103092;-77
2023/01/14 01:35:28;;;;;;;13.67;12.37;;;;;;;21.27;34.57;95263.34;6171470;28;103570;-78
2023/01/14 01:38:33;;;;;;;13.47;12.27;;;;;;;20.07;34.44;95074.50;6168813;28;103457;-80
2023/01/14 01:41:36;;;;;;;13.67;12.40;;;;;;;21.25;34.69;95263.66;6152634;28;102820;-78
2023/01/14 01:45:16;;;;;;;13.87;12.53;;;;;;;21.25;34.50;95258.34;6147755;28;105252;-78
2023/01/14 01:48:24;;;;;;;12.97;11.67;;;;;;;21.26;34.29;95248.47;6131229;28;103272;-78
2023/01/14 01:51:32;;;;;;;12.80;11.70;;;;;;;20.02;34.17;95062.13;6139568;28;105112;-78
2023/01/14 01:54:40;;;;;;;13.57;12.43;;;;;;;21.25;34.63;95249.56;6155232;28;104351;-77
2023/01/14 01:57:45;;;;;;;14.00;12.80;;;;;;;21.11;34.42;95218.41;6170963;28;102952;-76
2023/01/14 02:00:48;;;;;;;13.23;12.03;;;;;;;21.13;34.56;95229.53;6168841;28;102809;-79
2023/01/14 02:03:57;;;;;;;12.73;11.53;;;;;;;21.24;34.49;95238.13;6170072;28;103316;-78
2023/01/14 02:07:00;;;;;;;12.90;11.73;;;;;;;20.71;34.32;95156.06;6127684;28;1249127;-78
2023/01/14 02:10:06;;;;;;;13.27;12.07;;;;;;;21.13;34.10;95218.09;6130380;28;103044;-78
2023/01/14 02:13:29;;;;;;;13.20;12.00;;;;;;;21.25;34.76;95234.38;6143981;28;103491;-78
2023/01/14 02:16:46;;;;;;;14.77;13.37;;;;;;;21.18;34.24;95231.34;6173943;28;103417;-84
2023/01/14 02:20:13;;;;;;;13.83;12.53;;;;;;;21.25;34.43;95236.25;6174567;28;102746;-84
2023/01/14 02:23:54;;;;;;;14.17;12.77;;;;;;;21.26;34.59;95235.97;6176680;28;103617;-81
2023/01/14 02:27:35;;;;;;;14.10;12.80;;;;;;;21.24;34.65;95246.13;6163506;28;104397;-84
2023/01/14 02:30:56;;;;;;;13.53;12.37;;;;;;;21.26;34.33;95241.28;6173354;28;102999;-83
2023/01/14 02:34:05;;;;;;;14.17;12.77;;;;;;;21.02;34.28;95201.53;6169128;28;103524;-83
2023/01/14 02:37:13;;;;;;;14.03;12.63;;;;;;;21.25;34.45;95242.38;6164527;28;103845;-81
2023/01/14 02:40:22;;;;;;;12.87;11.70;;;;;;;21.25;34.29;95245.03;6170663;28;103377;-81
2023/01/14 02:47:01;;;;;;;14.03;12.77;;;;;;;21.14;34.23;95236.44;6164502;28;103408;-81
2023/01/14 02:50:07;;;;;;;14.10;12.80;;;;;;;20.71;34.13;95165.94;6172686;28;102552;-89
2023/01/14 02:53:12;;;;;;;13.10;11.90;;;;;;;21.05;34.18;95208.94;6172776;28;105664;-81
2023/01/14 02:56:17;;;;;;;14.17;12.87;;;;;;;21.04;34.17;95202.00;6170088;28;103297;-82
2023/01/14 02:59:42;;;;;;;13.77;12.43;;;;;;;21.07;34.24;95216.63;6164153;28;106100;-82
2023/01/14 03:03:12;;;;;;;13.43;12.33;;;;;;;21.11;34.29;95221.06;6167436;28;103474;-80
2023/01/14 03:06:24;;;;;;;12.87;11.67;;;;;;;21.25;34.31;95245.03;6172543;28;104122;-81
2023/01/14 03:09:35;;;;;;;13.13;11.93;;;;;;;21.16;34.21;95236.13;6169966;28;105591;-81
2023/01/14 03:12:44;;;;;;;13.30;12.20;;;;;;;20.90;34.53;95187.91;6163943;28;102620;-81
2023/01/14 03:15:54;;;;;;;13.40;12.23;;;;;;;20.06;34.32;95067.63;6170146;28;104605;-80
2023/01/14 03:19:06;;;;;;;14.47;13.17;;;;;;;21.24;34.11;95245.31;6171625;28;103225;-80
2023/01/14 03:22:11;;;;;;;16.00;14.60;;;;;;;21.23;34.26;95243.75;6171516;28;104852;-81
2023/01/14 03:25:17;;;;;;;14.90;13.50;;;;;;;21.23;33.99;95244.53;6172615;28;103488;-80
2023/01/14 03:28:24;;;;;;;17.20;15.60;;;;;;;21.05;34.12;95216.13;6172068;28;103287;-80
2023/01/14 03:31:31;;;;;;;17.53;16.03;;;;;;;21.22;34.31;95242.97;6166588;28;103881;-80
2023/01/14 03:34:45;;;;;;;17.77;16.17;;;;;;;20.77;33.95;95173.50;6165707;28;102787;-81
2023/01/14 03:37:53;;;;;;;17.53;15.90;;;;;;;20.97;33.98;95190.16;6167322;28;102812;-80
2023/01/14 03:40:59;;;;;;;19.87;18.07;;;;;;;20.70;33.99;95159.03;6167357;28;102723;-81
2023/01/14 03:44:07;;;;;;;19.83;17.93;;;;;;;20.88;34.36;95182.88;6163506;28;103245;-81
2023/01/14 03:47:11;;;;;;;19.80;18.00;;;;;;;20.92;33.58;95194.50;6149729;28;104336;-79
2023/01/14 03:50:18;;;;;;;18.53;16.93;;;;;;;21.23;34.42;95249.06;6166405;28;103165;-79
2023/01/14 03:53:26;;;;;;;18.60;17.00;;;;;;;21.16;33.93;95241.47;6152248;28;103089;-80
2023/01/14 03:56:39;;;;;;;20.13;18.30;;;;;;;21.24;34.39;95242.66;6165302;28;103652;-80
2023/01/14 03:59:49;;;;;;;20.53;18.63;;;;;;;20.28;33.96;95108.44;6166477;28;103202;-80
2023/01/14 04:02:54;;;;;;;18.87;17.07;;;;;;;21.18;34.07;95231.34;6166378;28;103329;-80
2023/01/14 04:06:01;;;;;;;20.20;18.30;;;;;;;21.23;33.89;95241.88;6165209;28;106549;-80
2023/01/14 04:09:06;;;;;;;19.77;17.97;;;;;;;21.17;34.09;95227.06;6165872;28;105310;-80
2023/01/14 04:12:09;;;;;;;19.57;17.87;;;;;;;21.23;33.50;95236.56;6167145;28;102951;-80
2023/01/14 04:15:23;;;;;;;19.70;17.80;;;;;;;21.23;34.02;95236.56;6166285;28;106134;-80
2023/01/14 04:18:26;;;;;;;19.63;17.83;;;;;;;21.22;33.98;95227.00;6164876;28;103053;-80
2023/01/14 04:21:31;;;;;;;19.53;17.83;;;;;;;20.62;33.89;95137.34;6166970;28;103521;-80
2023/01/14 04:24:34;;;;;;;19.60;17.90;;;;;;;21.10;33.97;95219.47;6167482;28;105537;-81
2023/01/14 04:27:37;;;;;;;19.60;17.80;;;;;;;20.68;33.97;95143.38;6167047;28;102715;-79
2023/01/14 04:30:41;;;;;;;18.90;17.20;;;;;;;20.93;33.85;95185.44;6162653;28;105368;-79
2023/01/14 04:33:44;;;;;;;19.30;17.60;;;;;;;20.85;33.95;95172.84;6171428;28;102929;-80
2023/01/14 04:36:49;;;;;;;18.93;17.23;;;;;;;21.21;33.95;95226.19;6171190;28;103395;-80
2023/01/14 04:39:52;;;;;;;19.10;17.40;;;;;;;21.21;33.83;95222.75;6167697;28;104505;-80
2023/01/14 04:42:55;;;;;;;18.23;16.73;;;;;;;21.23;34.06;95225.91;6168905;28;103451;-79
2023/01/14 04:46:00;;;;;;;19.23;17.53;;;;;;;20.75;33.69;95159.72;6148631;28;106856;-80
2023/01/14 04:49:05;;;;;;;18.33;16.60;;;;;;;21.01;33.90;95191.97;6170625;28;104397;-80
2023/01/14 04:52:13;;;;;;;18.73;17.03;;;;;;;20.86;34.17;95165.66;6168754;28;103310;-81
2023/01/14 04:55:16;;;;;;;18.67;17.07;;;;;;;21.20;33.84;95221.19;6171214;28;105351;-81
2023/01/14 04:58:20;;;;;;;19.77;17.90;;;;;;;20.99;33.89;95190.66;6170002;28;103182;-80
2023/01/14 05:01:23;;;;;;;19.57;17.87;;;;;;;21.16;33.77;95220.16;6169408;28;104607;-80
2023/01/14 05:04:27;;;;;;;19.87;17.97;;;;;;;21.21;33.72;95228.88;6166551;28;102885;-80
2023/01/14 05:07:33;;;;;;;20.17;18.33;;;;;;;21.21;34.08;95228.06;6170446;28;103532;-82
2023/01/14 05:10:38;;;;;;;20.40;18.60;;;;;;;20.70;33.68;95146.53;6170427;28;103116;-82
2023/01/14 05:13:41;;;;;;;20.97;19.07;;;;;;;20.68;33.84;95150.56;6169316;28;103775;-82
2023/01/14 05:16:44;;;;;;;19.87;18.10;;;;;;;21.06;34.03;95207.06;6168624;28;103310;-79
2023/01/14 05:19:47;;;;;;;21.03;19.13;;;;;;;21.02;34.10;95206.84;6169920;28;107060;-80
2023/01/14 05:22:58;;;;;;;19.93;18.20;;;;;;;20.28;33.79;95079.19;6171288;28;102672;-82
2023/01/14 05:26:01;;;;;;;20.37;18.47;;;;;;;20.93;33.73;95180.13;6167373;28;103154;-83
2023/01/14 05:29:04;;;;;;;19.40;17.70;;;;;;;21.19;33.96;95217.72;6171358;28;103833;-82
2023/01/14 05:32:11;;;;;;;21.17;19.30;;;;;;;20.40;33.98;95101.88;6169411;28;103635;-82
2023/01/14 05:35:16;;;;;;;21.40;19.50;;;;;;;21.28;33.80;95233.78;6171110;28;103700;-82
2023/01/14 05:38:21;;;;;;;21.77;19.87;;;;;;;21.27;33.38;95232.22;6163848;28;106596;-83
2023/01/14 05:41:24;;;;;;;23.13;21.03;;;;;;;21.13;33.62;95216.22;6170541;28;102814;-83
2023/01/14 05:47:49;;;;;;;25.73;23.57;;;;;;;20.76;33.83;95148.00;6168135;28;102892;-84
2023/01/14 05:50:54;;;;;;;25.90;23.70;;;;;;;21.16;33.87;95220.97;6166554;28;104320;-83
2023/01/14 05:53:58;;;;;;;25.73;23.23;;;;;;;21.29;34.08;95231.91;6169832;28;103380;-84
2023/01/14 05:57:03;;;;;;;24.87;22.83;;;;;;;20.81;33.91;95166.50;6170012;28;103011;-83
2023/01/14 06:06:20;;;;;;;24.70;22.60;;;;;;;20.65;33.50;95135.16;6158805;28;103487;-82
2023/01/14 06:06:53;;;;;;;26.33;23.93;;;;;;;21.27;33.73;95245.50;6164746;28;103457;-85
2023/01/14 06:09:59;;;;;;;26.90;24.60;;;;;;;21.26;34.15;95243.16;6169686;28;103006;-81
2023/01/14 06:13:05;;;;;;;26.90;24.60;;;;;;;21.21;33.46;95233.41;6167112;28;103331;-83
2023/01/14 06:16:08;;;;;;;24.57;22.43;;;;;;;21.00;34.11;95203.66;6169695;28;103453;-83
2023/01/14 06:19:14;;;;;;;24.40;22.33;;;;;;;21.00;33.87;95205.53;6168547;28;102988;-80
2023/01/14 06:22:19;;;;;;;23.57;21.37;;;;;;;21.28;33.87;95239.09;6145529;28;104364;-78
2023/01/14 06:25:24;;;;;;;27.13;24.87;;;;;;;21.17;34.01;95227.06;6167536;28;104807;-79
2023/01/14 06:28:28;;;;;;;29.70;27.30;;;;;;;21.22;33.57;95229.66;6168403;28;104116;-81
2023/01/14 06:31:32;;;;;;;32.37;29.77;;;;;;;21.16;33.92;95225.50;6157524;28;104231;-81
2023/01/14 06:34:35;;;;;;;34.67;31.67;;;;;;;21.21;33.69;95238.72;6154705;28;105070;-80
2023/01/14 06:37:38;;;;;;;41.67;38.30;;;;;;;20.06;34.06;95072.94;6165450;28;107815;-83
2023/01/14 06:40:43;;;;;;;36.70;33.80;;;;;;;21.26;33.98;95251.13;6167205;28;103319;-81
2023/01/14 06:43:47;;;;;;;37.23;34.17;;;;;;;21.23;34.21;95257.84;6168582;28;103081;-81
2023/01/14 06:46:50;;;;;;;36.30;33.50;;;;;;;21.23;33.93;95265.81;6157352;28;102654;-80
2023/01/14 06:49:58;;;;;;;33.80;30.97;;;;;;;21.01;33.85;95231.88;6171680;28;103987;-83
2023/01/14 06:53:02;;;;;;;29.70;27.27;;;;;;;21.13;33.70;95250.81;6171275;28;105169;-82
2023/01/14 06:56:09;;;;;;;27.57;25.10;;;;;;;21.01;33.48;95231.88;6167225;28;103481;-78
2023/01/14 06:59:13;;;;;;;26.57;24.40;;;;;;;21.16;33.53;95252.88;6167851;28;103129;-80
2023/01/14 07:02:18;;;;;;;24.73;22.27;;;;;;;21.00;34.05;95243.56;6171129;28;102705;-82
2023/01/14 07:05:22;;;;;;;23.87;21.37;;;;;;;21.21;33.66;95250.16;6168937;28;107243;-80
2023/01/14 07:08:25;;;;;;;23.17;20.70;;;;;;;21.03;33.92;95229.72;6163351;28;103344;-80
2023/01/14 07:11:30;;;;;;;22.67;20.60;;;;;;;21.18;34.09;95265.94;6171392;28;103322;-80
2023/01/14 07:14:33;;;;;;;22.77;20.77;;;;;;;21.19;34.01;95275.50;6171297;28;105880;-79
2023/01/14 07:17:37;;;;;;;22.50;20.50;;;;;;;21.10;33.80;95255.94;6170443;28;103581;-82
2023/01/14 07:20:41;;;;;;;21.77;19.67;;;;;;;20.17;34.21;95122.97;6167046;28;102787;-84
2023/01/14 07:23:45;;;;;;;20.90;19.10;;;;;;;21.30;34.42;95284.06;6174335;28;105371;-83
2023/01/14 07:26:52;;;;;;;21.83;19.83;;;;;;;21.26;34.41;95283.06;6174084;28;106364;-81
2023/01/14 07:29:55;;;;;;;19.90;18.10;;;;;;;21.10;34.43;95253.28;6168911;28;104729;-81
2023/01/14 07:32:59;;;;;;;19.20;17.53;;;;;;;21.25;33.98;95265.53;6166194;28;104888;-80
2023/01/14 07:39:51;;;;;;;18.23;16.60;;;;;;;21.40;34.00;95279.34;6171571;28;103087;-80
2023/01/14 07:42:57;;;;;;;18.13;16.60;;;;;;;21.40;33.99;95274.03;6161734;28;103307;-81
2023/01/14 07:46:00;;;;;;;19.13;17.33;;;;;;;21.49;33.65;95290.88;6170327;28;103056;-81
2023/01/14 07:49:03;;;;;;;18.00;16.10;;;;;;;21.48;33.66;95294.63;6170536;28;104200;-80
2023/01/14 07:52:08;;;;;;;17.57;16.07;;;;;;;21.44;33.85;95277.66;6169698;28;104411;-80
2023/01/14 07:55:14;;;;;;;17.90;16.10;;;;;;;21.47;33.75;95284.28;6162547;28;105160;-80
2023/01/14 07:58:21;;;;;;;17.43;15.87;;;;;;;21.50;33.59;95281.78;6170579;28;105269;-80
2023/01/14 08:01:24;;;;;;;18.17;16.57;;;;;;;21.55;33.56;95302.25;6170792;28;103323;-80
2023/01/14 08:04:30;;;;;;;15.97;14.47;;;;;;;20.51;33.43;95132.53;6162180;28;102642;-80
2023/01/14 08:07:33;;;;;;;16.00;14.60;;;;;;;21.58;33.47;95298.19;6171234;28;103055;-79
2023/01/14 08:10:37;;;;;;;14.50;13.30;;;;;;;21.52;33.32;95298.28;6174479;28;106499;-79
2023/01/14 08:13:43;;;;;;;15.87;14.47;;;;;;;21.59;33.43;95302.44;6174065;28;102780;-79
2023/01/14 08:16:46;;;;;;;15.07;13.70;;;;;;;21.58;33.10;95306.97;6167877;28;102744;-79
2023/01/14 08:19:50;;;;;;;14.90;13.70;;;;;;;21.59;33.33;95305.88;6174788;28;103876;-79
2023/01/14 08:22:57;;;;;;;15.57;14.07;;;;;;;21.59;33.16;95310.41;6175414;28;103665;-80
2023/01/14 08:26:01;;;;;;;14.63;13.33;;;;;;;21.36;33.24;95281.03;6176642;28;106571;-80
2023/01/14 08:29:06;;;;;;;15.07;13.67;;;;;;;21.59;33.10;95316.53;6167656;28;103279;-80
2023/01/14 08:32:15;;;;;;;14.57;13.37;;;;;;;21.29;33.37;95267.31;6178014;28;103399;-81
2023/01/14 08:35:19;;;;;;;13.93;12.60;;;;;;;21.62;33.25;95318.59;6174424;28;105284;-80
2023/01/14 08:38:22;;;;;;;13.67;12.47;;;;;;;21.61;33.05;95313.56;6169391;28;106350;-80
2023/01/14 08:41:25;;;;;;;14.00;12.90;;;;;;;21.60;32.91;95312.00;6171778;28;104821;-80
2023/01/14 08:44:30;;;;;;;13.50;12.30;;;;;;;21.41;33.31;95280.13;6174158;28;103340;-80
2023/01/14 08:47:33;;;;;;;13.57;12.47;;;;;;;21.64;33.12;95315.63;6173863;28;104577;-80
2023/01/14 08:50:36;;;;;;;13.67;12.37;;;;;;;21.66;32.86;95316.91;6165192;28;103280;-80
2023/01/14 08:53:40;;;;;;;12.80;11.80;;;;;;;21.68;33.02;95317.44;6173869;28;106307;-80
2023/01/14 08:56:44;;;;;;;15.23;13.83;;;;;;;21.70;33.05;95328.59;6172841;28;103036;-80
2023/01/14 08:59:49;;;;;;;13.20;12.07;;;;;;;21.74;33.17;95310.13;6173873;28;103490;-80
2023/01/14 09:02:52;;;;;;;13.20;12.00;;;;;;;21.76;33.10;95314.06;6164888;28;104035;-80
2023/01/14 09:05:56;;;;;;;13.47;12.33;;;;;;;20.63;33.00;95135.47;6172383;28;103183;-80
2023/01/14 09:19:05;;;;;;;12.00;11.00;;;;;;;21.86;32.52;95291.81;6173584;28;103023;-80
2023/01/14 09:22:11;;;;;;;12.40;11.30;;;;;;;21.89;32.83;95291.19;6173158;28;102597;-80
2023/01/14 09:25:15;;;;;;;11.97;10.87;;;;;;;21.91;32.92;95290.91;6165619;28;105574;-80
2023/01/14 09:28:28;;;;;;;11.67;10.67;;;;;;;21.89;32.59;95287.75;6171768;28;103379;-80
2023/01/14 09:31:33;;;;;;;11.23;10.23;;;;;;;21.75;32.82;95259.22;6173274;28;107338;-79
2023/01/14 09:34:38;;;;;;;11.37;10.37;;;;;;;21.70;32.41;95235.34;6170069;28;104698;-80
2023/01/14 09:37:41;;;;;;;11.50;10.43;;;;;;;21.89;32.60;95264.56;6169120;28;104305;-80
2023/01/14 09:40:45;;;;;;;10.37;9.47;;;;;;;21.78;32.65;95242.63;6171908;28;106756;-79
2023/01/14 09:43:48;;;;;;;10.60;9.70;;;;;;;21.78;32.56;95245.28;6172120;28;103035;-79
2023/01/14 09:46:56;;;;;;;10.37;9.47;;;;;;;22.04;32.63;95266.13;6165196;28;104084;-80
2023/01/14 09:49:59;;;;;;;10.63;9.73;;;;;;;22.06;32.61;95269.25;6172107;28;103100;-80
2023/01/14 09:53:17;;;;;;;11.13;10.13;;;;;;;22.06;32.27;95275.38;6172047;28;103424;-79
2023/01/14 09:56:25;;;;;;;10.20;9.30;;;;;;;22.11;32.36;95267.28;6172605;28;103322;-79
2023/01/14 09:59:39;;;;;;;9.83;9.03;;;;;;;22.14;32.35;95271.22;6164115;28;103332;-79
2023/01/14 10:02:49;;;;;;;9.53;8.73;;;;;;;22.17;32.27;95265.28;6172504;28;103251;-80
2023/01/14 10:05:57;;;;;;;9.90;9.10;;;;;;;22.08;32.53;95243.09;6171578;28;105117;-80
2023/01/14 10:09:06;;;;;;;9.93;9.00;;;;;;;22.24;32.02;95255.00;6168788;28;106576;-80
2023/01/14 10:12:17;;;;;;;8.97;8.17;;;;;;;22.15;32.27;95245.34;6168342;28;102742;-79
2023/01/14 10:15:35;;;;;;;9.40;8.60;;;;;;;22.05;32.42;95217.06;6171672;28;103175;-80
2023/01/14 10:18:49;;;;;;;7.90;7.20;;;;;;;22.17;31.88;95237.84;6171919;28;103053;-79
2023/01/14 10:21:58;;;;;;;8.77;8.07;;;;;;;22.15;32.23;95224.81;6163298;28;105152;-79
2023/01/14 10:25:04;;;;;;;8.20;7.53;;;;;;;22.15;32.49;95213.34;6172158;28;103053;-80
2023/01/14 10:28:13;;;;;;;8.37;7.70;;;;;;;22.08;32.30;95211.13;6171193;28;103022;-80
2023/01/14 10:31:22;;;;;;;8.63;7.93;;;;;;;22.31;32.54;95236.69;6170502;28;107058;-80
2023/01/14 10:34:32;;;;;;;8.30;7.70;;;;;;;22.19;32.19;95220.47;6166016;28;103264;-80
2023/01/14 10:37:39;;;;;;;7.70;7.10;;;;;;;22.09;32.17;95208.16;6171811;28;102987;-80
2023/01/14 10:40:45;;;;;;;7.63;7.03;;;;;;;22.28;32.68;95234.63;6170088;28;103354;-80
2023/01/14 10:43:50;;;;;;;7.77;7.03;;;;;;;22.29;32.23;95230.09;6161774;28;104411;-80
2023/01/14 10:46:58;;;;;;;7.33;6.73;;;;;;;22.30;32.22;95232.47;6172059;28;102549;-79
2023/01/14 10:50:14;;;;;;;7.57;6.97;;;;;;;22.29;32.15;95230.09;6171712;28;107135;-81
2023/01/14 10:53:20;;;;;;;7.97;7.33;;;;;;;22.30;32.54;95231.66;6171449;28;103052;-80
2023/01/14 10:56:29;;;;;;;7.30;6.70;;;;;;;22.29;32.49;95219.44;6163138;28;105348;-80
2023/01/14 10:59:52;;;;;;;8.20;7.50;;;;;;;22.25;32.35;95210.47;6171644;28;104621;-79
2023/01/14 11:02:57;;;;;;;7.00;6.40;;;;;;;22.28;32.38;95205.31;6172258;28;104901;-80
2023/01/14 11:06:06;;;;;;;7.87;7.23;;;;;;;22.27;32.26;95211.75;6167919;28;106251;-80
2023/01/14 11:09:18;;;;;;;6.27;5.87;;;;;;;22.28;32.55;95207.97;6168837;28;103293;-79
2023/01/14 11:12:30;;;;;;;7.40;6.80;;;;;;;22.00;32.50;95161.97;6168246;28;103643;-79
2023/01/14 11:15:38;;;;;;;7.80;7.20;;;;;;;22.28;32.61;95199.19;6167693;28;104059;-79
2023/01/14 11:18:50;;;;;;;7.43;6.83;;;;;;;22.27;32.60;95193.06;6160740;28;104766;-79
2023/01/14 11:21:56;;;;;;;6.63;6.13;;;;;;;22.21;32.81;95188.19;6169091;28;103606;-79
2023/01/14 11:24:59;;;;;;;7.20;6.63;;;;;;;22.19;32.83;95185.03;6168422;28;104484;-79
2023/01/14 11:28:06;;;;;;;6.90;6.30;;;;;;;22.05;32.41;95177.88;6168081;28;106541;-80
2023/01/14 11:31:10;;;;;;;7.00;6.50;;;;;;;22.18;32.55;95207.41;6164588;28;103248;-79
2023/01/14 11:34:26;;;;;;;6.90;6.37;;;;;;;21.69;33.05;95139.78;6167161;28;102523;-80
2023/01/14 11:37:35;;;;;;;6.80;6.30;;;;;;;22.02;33.00;95197.13;6168795;28;106557;-80
2023/01/14 11:44:01;;;;;;;5.90;5.40;;;;;;;21.88;32.86;95180.41;6167547;28;103380;-79
2023/01/14 11:47:14;;;;;;;6.60;6.03;;;;;;;22.07;33.06;95212.22;6166109;28;103255;-79
2023/01/14 11:50:20;;;;;;;7.00;6.40;;;;;;;22.03;32.68;95206.69;6167968;28;104436;-79
2023/01/14 11:53:26;;;;;;;6.60;6.00;;;;;;;22.03;33.08;95209.38;6160106;28;106254;-79
2023/01/14 11:56:35;;;;;;;6.63;6.13;;;;;;;22.03;33.09;95206.69;6168297;28;105442;-79
2023/01/14 11:59:39;;;;;;;6.23;5.70;;;;;;;21.81;32.93;95185.31;6168413;28;107857;-79
2023/01/14 12:02:47;;;;;;;6.47;5.97;;;;;;;21.83;33.20;95183.16;6165511;28;106571;-79
2023/01/14 12:05:54;;;;;;;6.20;5.70;;;;;;;22.03;32.74;95214.69;6164951;28;103216;-79
2023/01/14 12:09:05;;;;;;;6.80;6.20;;;;;;;21.84;32.85;95183.94;6168443;28;103166;-79
2023/01/14 12:12:15;;;;;;;6.80;6.20;;;;;;;21.96;32.62;95194.88;6172307;28;102840;-79
2023/01/14 12:18:50;;;;;;;6.70;6.07;;;;;;;22.05;32.82;95209.84;6170978;28;104025;-79
2023/01/14 12:22:01;;;;;;;6.43;5.83;;;;;;;22.02;32.96;95210.47;6172301;28;103200;-79
2023/01/14 12:25:13;;;;;;;6.50;6.00;;;;;;;21.90;32.64;95190.75;6168097;28;102941;-80
2023/01/14 12:28:25;;;;;;;5.90;5.50;;;;;;;21.84;33.12;95182.06;6168328;28;103334;-80
2023/01/14 12:31:35;;;;;;;6.33;5.83;;;;;;;22.03;32.97;95212.03;6173273;28;106472;-80
2023/01/14 12:34:42;;;;;;;6.37;5.87;;;;;;;21.89;33.03;95197.97;6171360;28;106401;-80
2023/01/14 12:37:51;;;;;;;6.17;5.67;;;;;;;21.99;32.98;95216.38;6164146;28;103090;-80
2023/01/14 12:47:56;;;;;;;5.77;5.37;;;;;;;21.87;32.97;95215.34;6167393;28;103367;-80
2023/01/14 12:51:04;;;;;;;6.60;6.10;;;;;;;21.98;33.13;95228.13;6166905;28;103314;-80
2023/01/14 12:54:11;;;;;;;5.77;5.23;;;;;;;21.90;32.98;95222.72;6173792;28;103386;-80
2023/01/14 12:57:21;;;;;;;6.20;5.70;;;;;;;21.95;32.96;95223.38;6175313;28;102515;-80
2023/01/14 13:00:28;;;;;;;5.50;5.10;;;;;;;21.95;32.96;95233.25;6168240;28;105310;-80
2023/01/14 13:03:36;;;;;;;5.80;5.40;;;;;;;21.93;33.01;95228.22;6174742;28;105903;-81
2023/01/14 13:06:40;;;;;;;5.73;5.33;;;;;;;21.94;32.86;95232.47;6173962;28;103218;-79
2023/01/14 13:09:47;;;;;;;6.10;5.60;;;;;;;21.67;32.71;95195.97;6176676;28;105869;-80
2023/01/14 13:12:53;;;;;;;5.90;5.40;;;;;;;21.92;32.79;95237.31;6169964;28;103693;-79
2023/01/14 13:15:59;;;;;;;5.47;5.07;;;;;;;21.91;33.24;95241.06;6176019;28;103080;-80
2023/01/14 13:19:06;;;;;;;6.10;5.60;;;;;;;21.51;33.22;95174.25;6176170;28;106704;-80
2023/01/14 13:22:11;;;;;;;4.80;4.50;;;;;;;21.89;33.02;95242.47;6170633;28;102870;-81
2023/01/14 13:25:36;;;;;;;5.90;5.40;;;;;;;21.84;32.80;95230.00;6174416;28;104892;-80
2023/01/14 13:29:15;;;;;;;5.20;4.80;;;;;;;21.89;32.67;95237.91;6176681;28;104358;-80
2023/01/14 13:32:54;;;;;;;5.53;5.03;;;;;;;21.88;32.72;95244.34;6171240;28;105065;-80
2023/01/14 13:36:20;;;;;;;5.30;4.90;;;;;;;21.88;33.16;95241.66;6173606;28;106124;-80
2023/01/14 13:39:24;;;;;;;5.33;4.93;;;;;;;21.27;33.19;95152.38;6176444;28;102975;-80
2023/01/14 13:42:38;;;;;;;5.30;4.90;;;;;;;21.82;32.88;95234.84;6177329;28;102847;-80
2023/01/14 13:45:42;;;;;;;5.40;5.00;;;;;;;21.87;32.95;95247.31;6170518;28;102714;-80
2023/01/14 13:48:52;;;;;;;5.67;5.17;;;;;;;21.70;32.81;95227.38;6176825;28;102647;-81
2023/01/14 13:52:04;;;;;;;4.67;4.27;;;;;;;21.62;33.28;95204.09;6176974;28;102883;-81
2023/01/14 13:55:23;;;;;;;5.03;4.67;;;;;;;21.73;32.85;95232.09;6175462;28;105216;-80
2023/01/14 13:58:45;;;;;;;4.60;4.30;;;;;;;21.38;33.11;95171.59;6169047;28;107406;-78
2023/01/14 14:01:49;;;;;;;5.47;4.97;;;;;;;21.79;32.87;95243.41;6173659;28;103348;-79
2023/01/14 14:05:14;;;;;;;5.00;4.60;;;;;;;21.86;32.84;95245.72;6172246;28;103517;-79
2023/01/14 14:08:25;;;;;;;5.27;4.87;;;;;;;21.80;32.89;95245.00;6166996;28;102583;-80
2023/01/14 14:11:34;;;;;;;4.90;4.50;;;;;;;21.43;33.20;95174.94;6173575;28;103289;-79
2023/01/14 14:14:44;;;;;;;4.50;4.20;;;;;;;21.83;33.06;95241.75;6173789;28;103169;-80
2023/01/14 14:17:53;;;;;;;5.10;4.73;;;;;;;21.85;33.22;95239.63;6173384;28;102850;-79
2023/01/14 14:20:58;;;;;;;5.00;4.60;;;;;;;21.62;33.14;95222.72;6166829;28;106561;-79
2023/01/14 14:24:07;;;;;;;4.47;4.17;;;;;;;21.86;33.03;95243.84;6173455;28;103278;-80
2023/01/14 14:27:16;;;;;;;5.00;4.60;;;;;;;21.86;33.13;95246.50;6172707;28;103185;-79
2023/01/14 14:30:24;;;;;;;5.30;4.90;;;;;;;21.43;32.96;95188.22;6167948;28;103414;-80
2023/01/14 14:33:39;;;;;;;4.87;4.50;;;;;;;21.85;32.50;95249.47;6173365;28;105108;-79
2023/01/14 14:36:47;;;;;;;5.00;4.63;;;;;;;21.85;33.06;95252.94;6174014;28;102982;-80
2023/01/14 14:39:53;;;;;;;4.30;4.00;;;;;;;21.63;32.82;95218.97;6173727;28;103824;-80
2023/01/14 14:42:58;;;;;;;4.23;3.93;;;;;;;21.68;32.96;95234.09;6167219;28;103523;-79
2023/01/14 14:46:04;;;;;;;4.80;4.40;;;;;;;21.84;33.17;95258.53;6173468;28;103077;-80
2023/01/14 14:49:20;;;;;;;5.43;4.93;;;;;;;21.79;32.54;95254.06;6176665;28;102548;-79
2023/01/14 14:52:27;;;;;;;5.20;4.80;;;;;;;21.76;32.93;95255.47;6173261;28;104835;-80
2023/01/14 14:55:48;;;;;;;4.70;4.30;;;;;;;21.84;32.62;95261.97;6168880;28;103995;-80
2023/01/14 14:58:55;;;;;;;4.27;3.97;;;;;;;21.84;32.83;95254.00;6173129;28;103717;-79
2023/01/14 15:02:01;;;;;;;4.23;3.93;;;;;;;21.77;32.97;95250.94;6174067;28;103283;-80